createdAt,value
2017-07-21T00:00:11.570Z,17.0
2017-07-21T00:01:17.980Z,17.0
2017-07-21T00:02:23.356Z,17.0
2017-07-21T00:03:27.391Z,16.9
2017-07-21T00:04:31.340Z,16.9
2017-07-21T00:05:38.363Z,16.9
2017-07-21T00:06:44.117Z,16.9
2017-07-21T00:07:49.886Z,16.9
2017-07-21T00:08:54.369Z,16.9
2017-07-21T00:10:01.435Z,16.9
2017-07-21T00:11:08.992Z,16.8
2017-07-21T00:12:12.883Z,16.9
2017-07-21T00:13:18.873Z,16.8
2017-07-21T00:14:24.383Z,16.9
2017-07-21T00:15:29.495Z,16.9
2017-07-21T00:16:34.876Z,16.8
2017-07-21T00:17:41.463Z,16.9
2017-07-21T00:18:48.891Z,16.8
2017-07-21T00:19:53.833Z,16.8
2017-07-21T00:20:57.921Z,16.8
2017-07-21T00:22:01.761Z,16.8
2017-07-21T00:23:08.607Z,16.8
2017-07-21T00:24:14.631Z,16.8
2017-07-21T00:25:23.897Z,16.7
2017-07-21T00:26:25.096Z,16.7
2017-07-21T00:27:31.019Z,16.7
2017-07-21T00:28:37.637Z,16.8
2017-07-21T00:29:44.505Z,16.8
2017-07-21T00:30:51.952Z,16.8
2017-07-21T00:31:55.841Z,16.8
2017-07-21T00:33:01.414Z,16.8
2017-07-21T00:34:10.906Z,16.8
2017-07-21T00:35:16.938Z,16.8
2017-07-21T00:36:20.515Z,16.8
2017-07-21T00:37:26.915Z,16.8
2017-07-21T00:38:29.298Z,16.8
2017-07-21T00:39:34.268Z,16.8
2017-07-21T00:40:40.429Z,16.8
2017-07-21T00:41:44.328Z,16.9
2017-07-21T00:42:51.663Z,16.9
2017-07-21T00:43:57.798Z,16.9
2017-07-21T00:45:02.846Z,16.9
2017-07-21T00:46:08.429Z,16.9
2017-07-21T00:47:12.444Z,16.9
2017-07-21T00:48:16.831Z,16.9
2017-07-21T00:49:22.300Z,17.0
2017-07-21T00:50:26.905Z,17.0
2017-07-21T00:51:30.707Z,17.0
2017-07-21T00:52:35.864Z,17.0
2017-07-21T00:53:42.053Z,17.0
2017-07-21T00:54:45.956Z,17.0
2017-07-21T00:55:52.425Z,17.0
2017-07-21T00:57:00.452Z,17.0
2017-07-21T00:58:05.788Z,17.0
2017-07-21T00:59:10.245Z,17.0
2017-07-21T01:00:16.429Z,17.0
2017-07-21T01:01:21.815Z,17.0
2017-07-21T01:02:25.650Z,17.0
2017-07-21T01:03:31.618Z,17.0
2017-07-21T01:04:36.455Z,17.0
2017-07-21T01:05:43.283Z,17.0
2017-07-21T01:06:48.459Z,17.0
2017-07-21T01:07:52.316Z,17.0
2017-07-21T01:08:58.676Z,17.1
2017-07-21T01:10:02.774Z,17.1
2017-07-21T01:11:08.387Z,17.0
2017-07-21T01:12:16.051Z,17.0
2017-07-21T01:13:21.332Z,17.0
2017-07-21T01:14:27.472Z,17.1
2017-07-21T01:15:34.177Z,17.1
2017-07-21T01:16:42.250Z,17.2
2017-07-21T01:17:47.887Z,17.1
2017-07-21T01:18:52.700Z,17.1
2017-07-21T01:19:58.505Z,17.2
2017-07-21T01:21:03.983Z,17.3
2017-07-21T01:22:07.954Z,17.4
2017-07-21T01:23:13.353Z,17.3
2017-07-21T01:24:18.418Z,17.2
2017-07-21T01:25:22.461Z,17.1
2017-07-21T01:26:29.747Z,17.1
2017-07-21T01:27:33.108Z,17.0
2017-07-21T01:28:39.995Z,16.9
2017-07-21T01:29:45.822Z,16.9
2017-07-21T01:30:50.486Z,16.9
2017-07-21T01:31:57.735Z,16.9
2017-07-21T01:33:03.490Z,16.9
2017-07-21T01:34:08.170Z,17.0
2017-07-21T01:35:14.592Z,16.9
2017-07-21T01:36:20.092Z,16.9
2017-07-21T01:37:26.449Z,16.9
2017-07-21T01:38:34.141Z,16.9
2017-07-21T01:39:41.037Z,16.9
2017-07-21T01:40:47.794Z,17.0
2017-07-21T01:41:54.008Z,17.0
2017-07-21T01:42:59.652Z,17.0
2017-07-21T01:44:10.588Z,16.9
2017-07-21T01:45:15.764Z,16.9
2017-07-21T01:46:22.531Z,16.9
2017-07-21T01:47:29.534Z,16.9
2017-07-21T01:48:32.659Z,16.9
2017-07-21T01:49:40.217Z,16.9
2017-07-21T01:50:45.334Z,16.9
2017-07-21T01:51:54.073Z,16.9
2017-07-21T01:52:59.031Z,16.8
2017-07-21T01:54:02.398Z,16.8
2017-07-21T01:55:07.398Z,16.8
2017-07-21T01:56:13.796Z,16.7
2017-07-21T01:57:21.244Z,16.7
2017-07-21T01:58:26.039Z,16.7
2017-07-21T01:59:33.000Z,16.6
2017-07-21T02:00:37.726Z,16.6
2017-07-21T02:01:42.166Z,16.5
2017-07-21T02:02:49.587Z,16.5
2017-07-21T02:03:53.528Z,16.5
2017-07-21T02:04:59.085Z,16.5
2017-07-21T02:06:05.135Z,16.5
2017-07-21T02:07:12.056Z,16.5
2017-07-21T02:08:14.602Z,16.5
2017-07-21T02:09:19.696Z,16.5
2017-07-21T02:10:26.566Z,16.5
2017-07-21T02:11:32.354Z,16.5
2017-07-21T02:12:36.092Z,16.4
2017-07-21T02:13:42.588Z,16.4
2017-07-21T02:14:45.421Z,16.4
2017-07-21T02:15:50.709Z,16.3
2017-07-21T02:16:57.073Z,16.3
2017-07-21T02:18:00.600Z,16.2
2017-07-21T02:19:06.258Z,16.2
2017-07-21T02:20:13.577Z,16.2
2017-07-21T02:21:16.723Z,16.2
2017-07-21T02:22:23.077Z,16.1
2017-07-21T02:23:30.553Z,16.1
2017-07-21T02:24:38.104Z,16.1
2017-07-21T02:25:40.670Z,16.0
2017-07-21T02:26:47.425Z,16.0
2017-07-21T02:27:55.609Z,16.0
2017-07-21T02:28:59.365Z,16.0
2017-07-21T02:30:05.218Z,15.9
2017-07-21T02:31:12.587Z,15.9
2017-07-21T02:32:18.622Z,15.9
2017-07-21T02:33:22.577Z,15.8
2017-07-21T02:34:28.888Z,15.8
2017-07-21T02:35:37.275Z,15.8
2017-07-21T02:36:43.105Z,15.8
2017-07-21T02:37:46.600Z,15.8
2017-07-21T02:38:52.156Z,15.8
2017-07-21T02:39:57.246Z,15.8
2017-07-21T02:41:04.109Z,15.9
2017-07-21T02:42:08.696Z,15.9
2017-07-21T02:43:14.266Z,15.9
2017-07-21T02:44:21.111Z,15.8
2017-07-21T02:45:25.372Z,15.8
2017-07-21T02:46:30.153Z,15.7
2017-07-21T02:47:34.590Z,15.6
2017-07-21T02:48:40.604Z,15.5
2017-07-21T02:49:50.121Z,15.5
2017-07-21T02:50:55.940Z,15.5
2017-07-21T02:52:03.126Z,15.5
2017-07-21T02:53:06.102Z,15.4
2017-07-21T02:54:13.712Z,15.4
2017-07-21T02:55:18.957Z,15.4
2017-07-21T02:56:26.134Z,15.5
2017-07-21T02:57:31.621Z,15.5
2017-07-21T02:58:36.089Z,15.4
2017-07-21T02:59:40.157Z,15.4
2017-07-21T03:00:45.139Z,15.4
2017-07-21T03:01:49.152Z,15.3
2017-07-21T03:02:54.226Z,15.3
2017-07-21T03:03:58.183Z,15.3
2017-07-21T03:05:01.758Z,15.2
2017-07-21T03:06:06.750Z,15.2
2017-07-21T03:07:13.615Z,15.1
2017-07-21T03:08:20.664Z,15.1
2017-07-21T03:09:25.110Z,15.0
2017-07-21T03:10:29.859Z,15.0
2017-07-21T03:11:36.754Z,14.9
2017-07-21T03:12:42.789Z,14.9
2017-07-21T03:13:46.660Z,14.8
2017-07-21T03:14:50.085Z,14.8
2017-07-21T03:15:56.514Z,14.8
2017-07-21T03:17:01.905Z,14.8
2017-07-21T03:18:07.533Z,14.7
2017-07-21T03:19:11.289Z,14.8
2017-07-21T03:20:16.197Z,14.7
2017-07-21T03:21:22.357Z,14.7
2017-07-21T03:22:28.696Z,14.7
2017-07-21T03:23:33.007Z,14.7
2017-07-21T03:24:38.365Z,14.7
2017-07-21T03:25:43.049Z,14.6
2017-07-21T03:26:48.586Z,14.6
2017-07-21T03:27:56.024Z,14.6
2017-07-21T03:29:02.320Z,14.6
2017-07-21T03:30:05.930Z,14.6
2017-07-21T03:31:09.802Z,14.6
2017-07-21T03:32:14.690Z,14.6
2017-07-21T03:33:20.375Z,14.6
2017-07-21T03:34:29.712Z,14.6
2017-07-21T03:35:33.279Z,14.6
2017-07-21T03:36:39.557Z,14.7
2017-07-21T03:37:42.687Z,14.6
2017-07-21T03:38:47.861Z,14.7
2017-07-21T03:39:54.928Z,14.7
2017-07-21T03:40:59.370Z,14.6
2017-07-21T03:42:04.130Z,14.6
2017-07-21T03:43:13.390Z,14.6
2017-07-21T03:44:18.792Z,14.6
2017-07-21T03:45:22.806Z,14.6
2017-07-21T03:46:30.592Z,14.6
2017-07-21T03:47:37.061Z,14.6
2017-07-21T03:48:41.731Z,14.6
2017-07-21T03:49:46.307Z,14.6
2017-07-21T03:50:54.586Z,14.5
2017-07-21T03:51:59.558Z,14.6
2017-07-21T03:53:05.326Z,14.6
2017-07-21T03:54:10.699Z,14.6
2017-07-21T03:55:16.158Z,14.6
2017-07-21T03:56:20.735Z,14.6
2017-07-21T03:57:24.837Z,14.6
2017-07-21T03:58:30.481Z,14.7
2017-07-21T03:59:37.504Z,14.6
2017-07-21T04:00:43.229Z,14.6
2017-07-21T04:01:48.237Z,14.6
2017-07-21T04:02:53.755Z,14.6
2017-07-21T04:03:57.238Z,14.6
2017-07-21T04:05:03.804Z,14.6
2017-07-21T04:06:10.074Z,14.7
2017-07-21T04:07:16.768Z,14.7
2017-07-21T04:08:22.476Z,14.7
2017-07-21T04:09:28.401Z,14.7
2017-07-21T04:10:35.383Z,14.6
2017-07-21T04:11:39.192Z,14.6
2017-07-21T04:12:47.758Z,14.6
2017-07-21T04:13:53.058Z,14.7
2017-07-21T04:14:58.855Z,14.7
2017-07-21T04:16:02.964Z,14.7
2017-07-21T04:17:07.606Z,14.7
2017-07-21T04:18:12.296Z,14.7
2017-07-21T04:19:19.376Z,14.8
2017-07-21T04:20:25.507Z,14.8
2017-07-21T04:21:28.976Z,14.8
2017-07-21T04:22:33.984Z,14.8
2017-07-21T04:23:40.403Z,14.9
2017-07-21T04:24:45.271Z,14.9
2017-07-21T04:25:50.564Z,15.0
2017-07-21T04:26:53.867Z,15.0
2017-07-21T04:28:01.923Z,15.1
2017-07-21T04:29:07.638Z,15.1
2017-07-21T04:30:12.402Z,15.2
2017-07-21T04:31:16.819Z,15.2
2017-07-21T04:32:21.652Z,15.3
2017-07-21T04:33:27.791Z,15.4
2017-07-21T04:34:32.911Z,15.5
2017-07-21T04:35:38.389Z,15.6
2017-07-21T04:36:42.359Z,15.7
2017-07-21T04:37:47.379Z,15.7
2017-07-21T04:38:53.296Z,15.7
2017-07-21T04:39:57.471Z,15.7
2017-07-21T04:41:01.973Z,15.7
2017-07-21T04:42:07.064Z,15.6
2017-07-21T04:43:11.554Z,15.6
2017-07-21T04:44:17.183Z,15.6
2017-07-21T04:45:23.085Z,15.6
2017-07-21T04:46:31.804Z,15.6
2017-07-21T04:47:36.926Z,15.6
2017-07-21T04:48:41.717Z,15.6
2017-07-21T04:49:45.529Z,15.6
2017-07-21T04:50:52.818Z,15.6
2017-07-21T04:51:58.813Z,15.6
2017-07-21T04:53:03.814Z,15.6
2017-07-21T04:54:10.205Z,15.6
2017-07-21T04:55:16.026Z,15.7
2017-07-21T04:56:21.392Z,15.7
2017-07-21T04:57:28.608Z,15.7
2017-07-21T04:58:34.995Z,15.8
2017-07-21T04:59:41.675Z,15.8
2017-07-21T05:00:49.829Z,15.8
2017-07-21T05:01:55.331Z,15.8
2017-07-21T05:03:01.360Z,15.9
2017-07-21T05:04:09.333Z,15.9
2017-07-21T05:05:12.504Z,15.9
2017-07-21T05:06:17.145Z,15.9
2017-07-21T05:07:24.448Z,15.9
2017-07-21T05:08:31.533Z,16.0
2017-07-21T05:09:38.123Z,16.0
2017-07-21T05:10:44.692Z,16.0
2017-07-21T05:11:50.696Z,16.0
2017-07-21T05:12:58.356Z,16.0
2017-07-21T05:14:03.348Z,16.0
2017-07-21T05:15:08.569Z,16.1
2017-07-21T05:16:14.186Z,16.1
2017-07-21T05:17:20.355Z,16.1
2017-07-21T05:18:24.264Z,16.1
2017-07-21T05:19:32.008Z,16.1
2017-07-21T05:20:38.226Z,16.2
2017-07-21T05:21:41.973Z,16.3
2017-07-21T05:22:50.362Z,16.3
2017-07-21T05:23:56.522Z,16.3
2017-07-21T05:25:02.669Z,16.2
2017-07-21T05:26:09.866Z,16.2
2017-07-21T05:27:13.019Z,16.2
2017-07-21T05:28:18.744Z,16.2
2017-07-21T05:29:24.374Z,16.2
2017-07-21T05:30:30.029Z,16.2
2017-07-21T05:31:35.585Z,16.3
2017-07-21T05:32:40.466Z,16.3
2017-07-21T05:33:45.878Z,16.3
2017-07-21T05:34:51.972Z,16.3
2017-07-21T05:36:00.643Z,16.4
2017-07-21T05:37:05.473Z,16.5
2017-07-21T05:38:11.499Z,16.5
2017-07-21T05:39:18.915Z,16.6
2017-07-21T05:40:23.782Z,16.6
2017-07-21T05:41:29.423Z,16.6
2017-07-21T05:42:34.919Z,16.5
2017-07-21T05:43:41.414Z,16.6
2017-07-21T05:44:48.769Z,16.6
2017-07-21T05:45:55.406Z,16.6
2017-07-21T05:47:00.411Z,16.6
2017-07-21T05:48:05.460Z,16.6
2017-07-21T05:49:12.819Z,16.6
2017-07-21T05:50:19.544Z,16.6
2017-07-21T05:51:25.908Z,16.6
2017-07-21T05:52:31.009Z,16.6
2017-07-21T05:53:48.238Z,16.6
2017-07-21T05:54:57.915Z,16.7
2017-07-21T05:56:05.128Z,16.8
2017-07-21T05:57:09.640Z,16.7
2017-07-21T05:58:17.557Z,16.8
2017-07-21T05:59:22.931Z,16.8
2017-07-21T06:00:28.429Z,16.8
2017-07-21T06:01:32.007Z,16.8
2017-07-21T06:02:39.927Z,16.9
2017-07-21T06:03:44.283Z,16.9
2017-07-21T06:04:51.432Z,16.9
2017-07-21T06:05:57.442Z,16.9
2017-07-21T06:07:01.091Z,17.0
2017-07-21T06:08:07.573Z,17.0
2017-07-21T06:09:15.934Z,17.1
2017-07-21T06:10:23.939Z,17.1
2017-07-21T06:11:28.080Z,17.1
2017-07-21T06:12:37.180Z,17.2
2017-07-21T06:13:44.165Z,17.2
2017-07-21T06:14:50.095Z,17.2
2017-07-21T06:15:58.057Z,17.3
2017-07-21T06:17:05.983Z,17.3
2017-07-21T06:18:11.293Z,17.3
2017-07-21T06:19:18.087Z,17.3
2017-07-21T06:20:22.668Z,17.3
2017-07-21T06:21:28.245Z,17.4
2017-07-21T06:22:34.144Z,17.4
2017-07-21T06:23:42.956Z,17.4
2017-07-21T06:24:49.076Z,17.5
2017-07-21T06:25:55.634Z,17.5
2017-07-21T06:26:59.737Z,17.6
2017-07-21T06:28:06.077Z,17.6
2017-07-21T06:29:14.469Z,17.7
2017-07-21T06:30:22.850Z,17.7
2017-07-21T06:31:28.913Z,17.8
2017-07-21T06:32:33.541Z,17.8
2017-07-21T06:33:38.269Z,17.8
2017-07-21T06:34:45.196Z,17.9
2017-07-21T06:35:52.984Z,17.9
2017-07-21T06:36:58.681Z,17.8
2017-07-21T06:38:03.483Z,17.9
2017-07-21T06:39:11.484Z,17.9
2017-07-21T06:40:19.081Z,18.0
2017-07-21T06:41:28.675Z,18.1
2017-07-21T06:42:37.988Z,18.2
2017-07-21T06:43:44.551Z,18.1
2017-07-21T06:44:52.829Z,18.1
2017-07-21T06:45:58.688Z,18.1
2017-07-21T06:47:03.831Z,18.2
2017-07-21T06:48:12.498Z,18.2
2017-07-21T06:49:19.733Z,18.2
2017-07-21T06:50:28.534Z,18.3
2017-07-21T06:51:36.062Z,18.3
2017-07-21T06:52:42.401Z,18.4
2017-07-21T06:53:50.595Z,18.4
2017-07-21T06:54:55.013Z,18.4
2017-07-21T06:56:01.743Z,18.5
2017-07-21T06:57:09.056Z,18.5
2017-07-21T06:58:14.585Z,18.5
2017-07-21T06:59:20.520Z,18.6
2017-07-21T07:00:25.647Z,18.6
2017-07-21T07:01:31.605Z,18.6
2017-07-21T07:02:38.058Z,18.7
2017-07-21T07:03:44.526Z,18.8
2017-07-21T07:04:52.531Z,18.7
2017-07-21T07:05:59.046Z,18.8
2017-07-21T07:07:04.182Z,18.9
2017-07-21T07:08:11.537Z,18.9
2017-07-21T07:09:16.193Z,18.9
2017-07-21T07:10:24.343Z,19.0
2017-07-21T07:11:29.937Z,19.2
2017-07-21T07:12:36.276Z,19.5
2017-07-21T07:13:43.383Z,19.8
2017-07-21T07:14:49.545Z,20.1
2017-07-21T07:15:57.805Z,20.3
2017-07-21T07:17:03.887Z,20.3
2017-07-21T07:18:08.576Z,20.2
2017-07-21T07:19:14.771Z,20.1
2017-07-21T07:20:22.581Z,20.1
2017-07-21T07:21:29.554Z,20.0
2017-07-21T07:22:34.805Z,19.9
2017-07-21T07:23:42.578Z,19.8
2017-07-21T07:24:46.375Z,19.8
2017-07-21T07:25:52.864Z,19.7
2017-07-21T07:26:57.439Z,19.8
2017-07-21T07:28:03.737Z,19.8
2017-07-21T07:29:12.425Z,19.8
2017-07-21T07:30:17.434Z,19.9
2017-07-21T07:31:21.257Z,19.9
2017-07-21T07:32:26.266Z,19.9
2017-07-21T07:33:33.583Z,19.9
2017-07-21T07:34:39.279Z,20.0
2017-07-21T07:35:43.827Z,20.0
2017-07-21T07:36:49.814Z,20.1
2017-07-21T07:37:54.163Z,20.2
2017-07-21T07:39:00.594Z,20.2
2017-07-21T07:40:08.635Z,20.2
2017-07-21T07:41:13.550Z,20.2
2017-07-21T07:42:19.383Z,20.3
2017-07-21T07:43:28.107Z,20.3
2017-07-21T07:44:33.798Z,20.4
2017-07-21T07:45:36.048Z,20.5
2017-07-21T07:46:41.182Z,20.5
2017-07-21T07:47:43.487Z,20.6
2017-07-21T07:48:45.681Z,20.6
2017-07-21T07:49:47.881Z,20.7
2017-07-21T07:50:50.052Z,20.7
2017-07-21T07:51:52.239Z,20.8
2017-07-21T07:52:54.458Z,20.8
2017-07-21T07:53:56.860Z,20.8
2017-07-21T07:54:59.070Z,20.8
2017-07-21T07:56:01.263Z,20.8
2017-07-21T07:57:03.477Z,20.8
2017-07-21T07:58:05.669Z,20.9
2017-07-21T07:59:07.855Z,21.0
2017-07-21T08:00:10.143Z,21.0
2017-07-21T08:01:12.340Z,21.1
2017-07-21T08:02:14.535Z,21.2
2017-07-21T08:03:16.731Z,21.2
2017-07-21T08:04:19.031Z,21.3
2017-07-21T08:05:21.216Z,21.3
2017-07-21T08:06:23.568Z,21.4
2017-07-21T08:07:25.766Z,21.4
2017-07-21T08:08:27.918Z,21.5
2017-07-21T08:09:30.085Z,21.5
2017-07-21T08:10:32.229Z,21.6
2017-07-21T08:11:34.563Z,21.6
2017-07-21T08:12:36.735Z,21.7
2017-07-21T08:13:38.907Z,21.8
2017-07-21T08:14:41.054Z,21.9
2017-07-21T08:15:43.327Z,21.9
2017-07-21T08:16:45.487Z,22.0
2017-07-21T08:17:47.641Z,22.1
2017-07-21T08:18:49.780Z,22.1
2017-07-21T08:19:52.042Z,22.2
2017-07-21T08:20:54.180Z,22.2
2017-07-21T08:21:56.345Z,22.3
2017-07-21T08:22:58.482Z,22.4
2017-07-21T08:24:00.635Z,22.4
2017-07-21T08:25:02.779Z,22.5
2017-07-21T08:26:04.936Z,22.5
2017-07-21T08:27:07.105Z,22.6
2017-07-21T08:28:09.245Z,22.6
2017-07-21T08:29:11.380Z,22.7
2017-07-21T08:30:13.608Z,22.8
2017-07-21T08:31:15.739Z,22.9
2017-07-21T08:32:17.915Z,23.0
2017-07-21T08:33:20.085Z,23.0
2017-07-21T08:34:22.196Z,23.1
2017-07-21T08:35:24.347Z,23.2
2017-07-21T08:36:26.484Z,23.3
2017-07-21T08:37:28.652Z,23.3
2017-07-21T08:38:30.793Z,23.4
2017-07-21T08:39:32.929Z,23.4
2017-07-21T08:40:35.068Z,23.5
2017-07-21T08:41:37.217Z,23.5
2017-07-21T08:42:39.389Z,23.5
2017-07-21T08:43:41.534Z,23.5
2017-07-21T08:44:43.668Z,23.7
2017-07-21T08:45:45.815Z,23.8
2017-07-21T08:46:47.940Z,23.9
2017-07-21T08:47:50.230Z,23.9
2017-07-21T08:48:52.382Z,24.0
2017-07-21T08:49:54.515Z,24.1
2017-07-21T08:50:56.657Z,24.2
2017-07-21T08:51:58.806Z,24.2
2017-07-21T08:53:00.965Z,24.3
2017-07-21T08:54:03.093Z,24.4
2017-07-21T08:55:05.243Z,24.5
2017-07-21T08:56:07.391Z,24.5
2017-07-21T08:57:09.522Z,24.6
2017-07-21T08:58:11.682Z,24.7
2017-07-21T08:59:13.818Z,24.7
2017-07-21T09:00:15.962Z,24.9
2017-07-21T09:01:18.128Z,25.0
2017-07-21T09:02:20.261Z,25.0
2017-07-21T09:03:22.432Z,25.1
2017-07-21T09:04:24.578Z,25.2
2017-07-21T09:05:26.725Z,25.3
2017-07-21T09:06:28.869Z,25.4
2017-07-21T09:07:31.016Z,25.4
2017-07-21T09:08:33.175Z,25.4
2017-07-21T09:09:35.331Z,25.6
2017-07-21T09:10:37.469Z,25.8
2017-07-21T09:11:39.629Z,25.7
2017-07-21T09:12:41.772Z,25.7
2017-07-21T09:13:43.946Z,25.7
2017-07-21T09:14:46.088Z,25.8
2017-07-21T09:15:48.229Z,26.1
2017-07-21T09:16:50.368Z,26.4
2017-07-21T09:17:52.509Z,26.8
2017-07-21T09:18:54.684Z,26.9
2017-07-21T09:19:56.836Z,26.8
2017-07-21T09:20:58.969Z,27.0
2017-07-21T09:22:01.117Z,27.3
2017-07-21T09:23:03.251Z,27.5
2017-07-21T09:24:05.445Z,27.7
2017-07-21T09:25:07.589Z,27.8
2017-07-21T09:26:09.726Z,28.0
2017-07-21T09:27:11.872Z,28.1
2017-07-21T09:28:14.011Z,28.2
2017-07-21T09:29:16.180Z,28.3
2017-07-21T09:30:18.309Z,28.4
2017-07-21T09:31:20.449Z,28.4
2017-07-21T09:32:22.599Z,28.6
2017-07-21T09:33:24.734Z,28.7
2017-07-21T09:34:26.893Z,28.7
2017-07-21T09:35:29.038Z,28.6
2017-07-21T09:36:31.174Z,28.7
2017-07-21T09:37:33.319Z,28.5
2017-07-21T09:38:35.460Z,28.7
2017-07-21T09:39:37.616Z,28.9
2017-07-21T09:40:39.744Z,29.1
2017-07-21T09:41:41.877Z,29.3
2017-07-21T09:42:44.088Z,29.5
2017-07-21T09:43:46.357Z,29.5
2017-07-21T09:44:48.500Z,29.6
2017-07-21T09:45:50.710Z,29.7
2017-07-21T09:46:52.876Z,29.7
2017-07-21T09:47:55.059Z,29.8
2017-07-21T09:48:57.284Z,29.8
2017-07-21T09:49:59.452Z,29.8
2017-07-21T09:51:01.632Z,29.5
2017-07-21T09:52:03.828Z,29.4
2017-07-21T09:53:06.027Z,29.5
2017-07-21T09:54:08.228Z,29.6
2017-07-21T09:55:10.512Z,29.8
2017-07-21T09:56:12.715Z,29.8
2017-07-21T09:57:14.921Z,29.7
2017-07-21T09:58:17.104Z,29.5
2017-07-21T09:59:19.283Z,29.3
2017-07-21T10:00:21.483Z,29.1
2017-07-21T10:01:23.701Z,29.2
2017-07-21T10:02:25.890Z,29.4
2017-07-21T10:03:28.074Z,29.6
2017-07-21T10:04:30.291Z,29.7
2017-07-21T10:05:32.459Z,29.8
2017-07-21T10:06:34.620Z,29.8
2017-07-21T10:07:36.812Z,29.9
2017-07-21T10:08:38.995Z,30.0
2017-07-21T10:09:41.228Z,30.1
2017-07-21T10:10:43.408Z,30.0
2017-07-21T10:11:45.615Z,30.1
2017-07-21T10:12:47.789Z,30.4
2017-07-21T10:13:49.987Z,30.6
2017-07-21T10:14:52.213Z,30.7
2017-07-21T10:15:54.414Z,30.7
2017-07-21T10:16:56.637Z,30.6
2017-07-21T10:17:58.817Z,30.4
2017-07-21T10:19:01.016Z,30.2
2017-07-21T10:20:03.226Z,29.9
2017-07-21T10:21:05.368Z,29.9
2017-07-21T10:22:07.509Z,30.1
2017-07-21T10:23:09.656Z,30.1
2017-07-21T10:24:11.800Z,29.9
2017-07-21T10:25:13.963Z,29.8
2017-07-21T10:26:16.098Z,29.6
2017-07-21T10:27:18.242Z,29.7
2017-07-21T10:28:20.367Z,29.7
2017-07-21T10:29:22.513Z,29.6
2017-07-21T10:30:24.692Z,29.8
2017-07-21T10:31:26.838Z,30.0
2017-07-21T10:32:28.987Z,30.0
2017-07-21T10:33:31.129Z,30.2
2017-07-21T10:34:33.267Z,30.5
2017-07-21T10:35:35.431Z,30.7
2017-07-21T10:36:37.595Z,30.7
2017-07-21T10:37:39.727Z,30.6
2017-07-21T10:38:41.867Z,30.6
2017-07-21T10:39:44.000Z,30.5
2017-07-21T10:40:46.173Z,30.2
2017-07-21T10:41:48.321Z,30.0
2017-07-21T10:42:50.470Z,29.8
2017-07-21T10:43:52.605Z,29.8
2017-07-21T10:44:54.750Z,29.9
2017-07-21T10:45:56.918Z,29.9
2017-07-21T10:46:59.107Z,30.2
2017-07-21T10:48:01.254Z,30.3
2017-07-21T10:49:03.389Z,30.6
2017-07-21T10:50:05.528Z,30.9
2017-07-21T10:51:07.699Z,31.0
2017-07-21T10:52:09.852Z,31.0
2017-07-21T10:53:11.992Z,31.1
2017-07-21T10:54:14.138Z,31.2
2017-07-21T10:55:16.276Z,31.2
2017-07-21T10:56:18.450Z,31.1
2017-07-21T10:57:20.593Z,31.2
2017-07-21T10:58:22.736Z,31.4
2017-07-21T10:59:24.880Z,31.4
2017-07-21T11:00:27.030Z,31.7
2017-07-21T11:01:29.203Z,31.8
2017-07-21T11:02:31.357Z,31.9
2017-07-21T11:03:33.492Z,32.0
2017-07-21T11:04:35.643Z,31.9
2017-07-21T11:05:37.792Z,31.9
2017-07-21T11:06:39.959Z,31.7
2017-07-21T11:07:42.091Z,31.5
2017-07-21T11:08:44.230Z,31.4
2017-07-21T11:09:46.402Z,31.4
2017-07-21T11:10:48.588Z,31.6
2017-07-21T11:11:50.796Z,31.7
2017-07-21T11:12:53.022Z,31.7
2017-07-21T11:13:55.189Z,31.7
2017-07-21T11:14:57.382Z,31.4
2017-07-21T11:15:59.603Z,31.3
2017-07-21T11:17:01.830Z,31.4
2017-07-21T11:18:04.068Z,31.3
2017-07-21T11:19:06.205Z,31.2
2017-07-21T11:20:08.344Z,31.1
2017-07-21T11:21:10.557Z,31.0
2017-07-21T11:22:12.729Z,31.0
2017-07-21T11:23:14.916Z,31.2
2017-07-21T11:24:17.098Z,31.3
2017-07-21T11:25:19.270Z,31.5
2017-07-21T11:26:21.495Z,31.5
2017-07-21T11:27:23.726Z,31.5
2017-07-21T11:28:25.900Z,31.4
2017-07-21T11:29:28.094Z,31.4
2017-07-21T11:30:30.267Z,31.5
2017-07-21T11:31:32.521Z,31.5
2017-07-21T11:32:34.699Z,31.5
2017-07-21T11:33:36.880Z,31.7
2017-07-21T11:34:39.022Z,31.8
2017-07-21T11:35:41.185Z,31.9
2017-07-21T11:36:43.348Z,31.9
2017-07-21T11:37:45.494Z,32.0
2017-07-21T11:38:47.623Z,32.0
2017-07-21T11:39:49.854Z,31.8
2017-07-21T11:40:51.997Z,31.9
2017-07-21T11:41:54.164Z,31.9
2017-07-21T11:42:56.299Z,31.8
2017-07-21T11:43:58.444Z,31.8
2017-07-21T11:45:00.599Z,31.8
2017-07-21T11:46:02.722Z,31.9
2017-07-21T11:47:04.882Z,32.0
2017-07-21T11:48:07.034Z,32.0
2017-07-21T11:49:09.181Z,32.0
2017-07-21T11:50:11.394Z,31.9
2017-07-21T11:51:13.541Z,31.9
2017-07-21T11:52:15.716Z,31.8
2017-07-21T11:53:17.856Z,31.7
2017-07-21T11:54:19.984Z,31.8
2017-07-21T11:55:22.120Z,31.8
2017-07-21T11:56:24.269Z,31.9
2017-07-21T11:57:26.447Z,32.0
2017-07-21T11:58:28.595Z,31.9
2017-07-21T11:59:30.753Z,31.4
2017-07-21T12:00:32.902Z,31.1
2017-07-21T12:01:35.055Z,31.1
2017-07-21T12:02:37.224Z,31.4
2017-07-21T12:03:39.374Z,31.5
2017-07-21T12:04:41.519Z,31.8
2017-07-21T12:05:43.674Z,31.9
2017-07-21T12:06:45.840Z,31.8
2017-07-21T12:07:48.004Z,31.8
2017-07-21T12:08:50.152Z,31.8
2017-07-21T12:09:52.288Z,31.7
2017-07-21T12:10:54.436Z,31.5
2017-07-21T12:11:56.592Z,31.4
2017-07-21T12:12:58.781Z,31.6
2017-07-21T12:14:00.922Z,31.7
2017-07-21T12:15:03.066Z,31.8
2017-07-21T12:16:05.220Z,31.7
2017-07-21T12:17:07.387Z,31.6
2017-07-21T12:18:09.563Z,31.8
2017-07-21T12:19:11.696Z,32.0
2017-07-21T12:20:13.846Z,32.2
2017-07-21T12:21:15.979Z,32.2
2017-07-21T12:22:18.134Z,32.1
2017-07-21T12:23:20.304Z,32.1
2017-07-21T12:24:22.445Z,32.1
2017-07-21T12:25:24.586Z,32.2
2017-07-21T12:26:26.733Z,32.4
2017-07-21T12:27:28.919Z,32.5
2017-07-21T12:28:31.091Z,32.6
2017-07-21T12:29:33.236Z,32.4
2017-07-21T12:30:35.375Z,32.3
2017-07-21T12:31:37.533Z,32.5
2017-07-21T12:32:39.681Z,32.6
2017-07-21T12:33:41.858Z,32.8
2017-07-21T12:34:44.026Z,32.8
2017-07-21T12:35:46.181Z,32.9
2017-07-21T12:36:48.332Z,33.0
2017-07-21T12:37:50.499Z,33.3
2017-07-21T12:38:52.683Z,33.3
2017-07-21T12:39:54.836Z,33.2
2017-07-21T12:40:56.995Z,33.1
2017-07-21T12:41:59.160Z,33.1
2017-07-21T12:43:01.334Z,33.0
2017-07-21T12:44:03.525Z,33.1
2017-07-21T12:45:05.733Z,32.9
2017-07-21T12:46:07.890Z,32.9
2017-07-21T12:47:10.047Z,32.8
2017-07-21T12:48:12.207Z,32.8
2017-07-21T12:49:14.398Z,33.1
2017-07-21T12:50:16.559Z,33.4
2017-07-21T12:51:18.712Z,33.6
2017-07-21T12:52:20.878Z,33.7
2017-07-21T12:53:23.031Z,33.9
2017-07-21T12:54:25.215Z,33.9
2017-07-21T12:55:27.373Z,33.7
2017-07-21T12:56:29.534Z,33.7
2017-07-21T12:57:31.705Z,33.8
2017-07-21T12:58:33.921Z,33.9
2017-07-21T12:59:36.075Z,34.1
2017-07-21T13:00:38.238Z,34.1
2017-07-21T13:01:40.408Z,34.2
2017-07-21T13:02:42.561Z,34.2
2017-07-21T13:03:44.757Z,34.3
2017-07-21T13:04:46.945Z,34.5
2017-07-21T13:05:49.086Z,34.7
2017-07-21T13:06:51.250Z,34.7
2017-07-21T13:07:53.425Z,34.7
2017-07-21T13:08:55.636Z,34.7
2017-07-21T13:09:57.777Z,34.6
2017-07-21T13:10:59.947Z,34.7
2017-07-21T13:12:02.106Z,34.7
2017-07-21T13:13:04.267Z,34.8
2017-07-21T13:14:06.476Z,34.6
2017-07-21T13:15:08.650Z,34.5
2017-07-21T13:16:10.802Z,34.4
2017-07-21T13:17:12.958Z,34.5
2017-07-21T13:18:15.121Z,34.4
2017-07-21T13:19:17.312Z,34.5
2017-07-21T13:20:19.460Z,34.6
2017-07-21T13:21:21.627Z,34.8
2017-07-21T13:22:23.866Z,35.0
2017-07-21T13:23:26.025Z,35.1
2017-07-21T13:24:28.208Z,35.1
2017-07-21T13:25:30.383Z,34.7
2017-07-21T13:26:32.536Z,34.2
2017-07-21T13:27:34.694Z,34.3
2017-07-21T13:28:36.845Z,34.3
2017-07-21T13:29:39.030Z,34.3
2017-07-21T13:30:41.193Z,34.4
2017-07-21T13:31:43.367Z,34.5
2017-07-21T13:32:45.528Z,34.6
2017-07-21T13:33:47.691Z,34.5
2017-07-21T13:34:49.867Z,34.5
2017-07-21T13:35:52.028Z,34.5
2017-07-21T13:36:54.192Z,34.8
2017-07-21T13:37:56.351Z,35.1
2017-07-21T13:38:58.505Z,35.0
2017-07-21T13:40:00.700Z,35.0
2017-07-21T13:41:02.866Z,35.1
2017-07-21T13:42:05.031Z,34.8
2017-07-21T13:43:07.198Z,34.6
2017-07-21T13:44:09.373Z,34.8
2017-07-21T13:45:11.567Z,35.1
2017-07-21T13:46:13.736Z,35.2
2017-07-21T13:47:15.939Z,35.4
2017-07-21T13:48:18.106Z,35.3
2017-07-21T13:49:20.314Z,35.1
2017-07-21T13:50:22.523Z,34.6
2017-07-21T13:51:24.702Z,34.4
2017-07-21T13:52:26.862Z,34.6
2017-07-21T13:53:29.020Z,35.1
2017-07-21T13:54:31.180Z,35.5
2017-07-21T13:55:33.388Z,35.8
2017-07-21T13:56:35.551Z,35.8
2017-07-21T13:57:37.708Z,35.7
2017-07-21T13:58:39.865Z,35.9
2017-07-21T13:59:42.030Z,35.9
2017-07-21T14:00:44.213Z,35.7
2017-07-21T14:01:46.386Z,35.7
2017-07-21T14:02:48.541Z,35.7
2017-07-21T14:03:50.716Z,35.6
2017-07-21T14:04:52.877Z,35.5
2017-07-21T14:05:55.074Z,35.3
2017-07-21T14:06:57.232Z,35.2
2017-07-21T14:07:59.411Z,35.1
2017-07-21T14:09:01.578Z,35.2
2017-07-21T14:10:03.763Z,35.0
2017-07-21T14:11:05.965Z,34.8
2017-07-21T14:12:08.124Z,34.7
2017-07-21T14:13:10.292Z,34.7